Montgomery, Kentucky
Current Conditions -  °F | °C
As of 5:58 AM on Monday 22 Dec 2014 (Local Time) from KHOP Reporting Station
Overcast Overcast  
Wind Chill: 41°   Ceiling: 1800
Heat Index: 45°   Visibility: 10mi
Dew Point: 42°   Wind: 7mph
Humidity: 92%   Direction: 130°SE
Pressure: 29.91"   Gusts: NA
Location:  36.8031°N, 87.8159°W
Report Text: KHOP 221158Z AUTO 13006KT 10SM OVC018 07/06 A2991 RMK AO2 SLP132 T00700058 10070 20028 57010
Loading
Personal Weather Stations






























Interactive Weather Map New forecast layout! Learn more

10-Day Weather Forecast

Advertisements
Track Severe Weather on mobile